Nearby METAR Reports

 

KTCM - Tacoma,Washington,
Updated: 02/23/2019 4:58am
Clear
Clear
 Wind from SSE
Wind: SSE 5 mph , 7 km/h
Temperature: 28°F , -2°C
Wind Chill: 22°F , -6°C
Dew Point: 28°F , -2°C
Humidity: 100%
Barometer: 30.08 inHg , 1018.6 hPa
Clouds: Clear
Visibility: 10 miles , 16 km
2019/02/23 12:58 KTCM 231258Z AUTO 16004KT 10SM CLR M02/M02 A3008 RMK AO2 SLP193 T10161016 $
KSEA - Seattle,Washington,
Updated: 02/23/2019 5:36am
Mostly cloudy
Mostly cloudy
 Wind from SSW
Wind: SSW 12 mph , 19 km/h
Temperature: 37°F , 3°C
Wind Chill: 29°F , -2°C
Dew Point: 32°F , 0°C
Humidity: 81%
Barometer: 30.07 inHg , 1018.3 hPa
Clouds: Mostly cloudy
Visibility: 10 miles , 16 km
Cloud details: Partly cloudy 1100 ft
Mostly cloudy 4000 ft
Mostly cloudy 12000 ft
2019/02/23 13:36 KSEA 231336Z 20010KT 10SM SCT011 BKN040 BKN120 03/00 A3007 RMK AO2 T00280000
 
KOLM - Olympia,Washington,
Updated: 02/23/2019 5:32am
Mist, Overcast
Mist, Overcast
 Wind from SW
Wind: SW 7 mph , 11 km/h
Temperature: 32°F , 0°C
Wind Chill: 25°F , -4°C
Dew Point: 32°F , 0°C
Humidity: 100%
Barometer: 30.10 inHg , 1019.3 hPa
Summary: Mist
Clouds: Overcast
Visibility: 3 miles , 5 km
Cloud details: Overcast 200 ft
2019/02/23 13:32 KOLM 231332Z AUTO 23006KT 3SM BR OVC002 00/00 A3010 RMK AO2 T00000000
KHQM - Hoquiam,Washington,
Updated: 02/23/2019 5:37am
Overcast
Overcast
 Wind from ENE
Wind: ENE 5 mph , 7 km/h
Temperature: 36°F , 2°C
Wind Chill: 32°F , 0°C
Dew Point: 34°F , 1°C
Humidity: 93%
Barometer: 30.08 inHg , 1018.6 hPa
Clouds: Overcast
Visibility: 9 miles , 14 km
Cloud details: Partly cloudy 2300 ft
Mostly cloudy 4700 ft
Overcast 11000 ft
2019/02/23 13:37 KHQM 231337Z AUTO 07004KT 9SM SCT023 BKN047 OVC110 02/01 A3008 RMK AO2 T00220011
 
KGEG - Spokane,Washington,
Updated: 02/23/2019 5:38am
Freezing fog, Mostly cloudy
Freezing fog, Mostly cloudy
 Wind from SSE
Wind: SSE 8 mph , 13 km/h
Temperature: 18°F , -8°C
Wind Chill: 8°F , -13°C
Dew Point: 16°F , -9°C
Humidity: 93%
Barometer: 29.99 inHg , 1015.6 hPa
Summary: Freezing Fog
Clouds: Mostly cloudy
Visibility: 1/2 mile , 0.8 km
Cloud details: Mostly cloudy 200 ft
Mostly cloudy 1000 ft
2019/02/23 13:38 KGEG 231338Z 16007KT 1/2SM R21/P6000FT FZFG BKN002 BKN010 M08/M09 A2999 RMK AO2 TWR VIS 3 I1000 T10781094
KBLI - Bellingham,Washington,
Updated: 02/23/2019 5:27am
Overcast
Overcast
 Wind from SE
Wind: SE 9 mph , 15 km/h
Temperature: 37°F , 3°C
Wind Chill: 30°F , -1°C
Dew Point: 34°F , 1°C
Humidity: 87%
Barometer: 30.05 inHg , 1017.6 hPa
Clouds: Overcast
Visibility: 10 miles , 16 km
Cloud details: Mostly cloudy 1200 ft
Mostly cloudy 1800 ft
Overcast 3800 ft
2019/02/23 13:27 KBLI 231327Z AUTO 13008KT 10SM BKN012 BKN018 OVC038 03/01 A3005 RMK AO2 T00280006